September 25, 2022

Time Code Weather Temp. Visibility Ceiling Wind METAR/SPECI
06:50
V
10 °C 10 km+ - 320° 320° 4 kt METAR EDWE 250450Z AUTO 32004KT 9999 // NCD 10/07 Q1014
06:20
V
10 °C 10 km+ - 320° 320° 5 kt METAR EDWE 250420Z AUTO 32005KT 9999 // FEW033/// 10/07 Q1014
05:50
V
9 °C 10 km+ - 320° 320° 4 kt METAR EDWE 250350Z AUTO 32004KT 9999 // FEW035/// 09/07 Q1014
05:20
V
10 °C 10 km+ - 320° 320° 4 kt METAR EDWE 250320Z AUTO 32004KT 9999 // NCD 10/07 Q1014
04:50
V
10 °C 10 km+ - 330° 330° 4 kt METAR EDWE 250250Z AUTO 33004KT 9999 // NCD 10/08 Q1014
04:20
V
10 °C 10 km+ - 320° 320° 5 kt METAR EDWE 250220Z AUTO 32005KT 9999 // NCD 10/07 Q1014
03:50
V
10 °C 10 km+ - 320° 320° 5 kt METAR EDWE 250150Z AUTO 32005KT 9999 // NCD 10/08 Q1014
03:20
V
10 °C 10 km+ - 330° 330° 4 kt METAR EDWE 250120Z AUTO 33004KT 9999 // FEW089/// 10/08 Q1014
02:50
V
10 °C 10 km+ - 320° 320° 6 kt METAR EDWE 250050Z AUTO 32006KT 9999 // NCD 10/08 Q1014
02:20
V
10 °C 10 km+ - 310° 310° 4 kt METAR EDWE 250020Z AUTO 31004KT 9999 // NCD 10/08 Q1014
01:50
V
10 °C 10 km+ - 310° 310° 4 kt METAR EDWE 242350Z AUTO 31004KT 9999 // NCD 10/08 Q1014
01:20
V
10 °C 10 km+ - 320° 320° 4 kt METAR EDWE 242320Z AUTO 32004KT 9999 // NCD 10/08 Q1014
00:50
V
10 °C 10 km+ - 320° 320° 5 kt METAR EDWE 242250Z AUTO 32005KT 9999 // NCD 10/08 Q1014
00:20
V
10 °C 10 km+ - 320° 320° 4 kt METAR EDWE 242220Z AUTO 32004KT 9999 // NCD 10/08 Q1014

September 24, 2022

Time Code Weather Temp. Visibility Ceiling Wind METAR/SPECI
23:50
V
10 °C 10 km+ - 320° 320° 4 kt METAR EDWE 242150Z AUTO 32004KT 9999 // FEW034/// 10/08 Q1014
23:20
V
11 °C 10 km+ - 320° 320° 4 kt METAR EDWE 242120Z AUTO 32004KT 9999 // SCT032/// 11/08 Q1014
22:50
V
11 °C 10 km+ - 330° 330° 4 kt METAR EDWE 242050Z AUTO 33004KT 9999 // FEW028/// SCT093/// 11/08 Q1014
22:20
V
11 °C 10 km+ - 320° 320° 6 kt METAR EDWE 242020Z AUTO 32006KT 9999 // NCD 11/09 Q1014
21:50
V
12 °C 10 km+ - 320° 320° 5 kt METAR EDWE 241950Z AUTO 32005KT 9999 // NCD 12/09 Q1014
21:20
V
11 °C 10 km+ - 320° 320° 5 kt METAR EDWE 241920Z AUTO 32005KT 9999 // NCD 11/09 Q1014
20:50
V
11 °C 10 km+ 7,700 ft 330° 330° 4 kt METAR EDWE 241850Z AUTO 33004KT 9999 // BKN077/// 11/09 Q1014
07:20
I
14 °C 6 km 700 ft 220° 220° 6 kt METAR EDWE 240520Z AUTO 22006KT 190V250 6000 // BKN007/// OVC010/// 14/13 Q1010
06:50
I
13 °C 3.8 km 8,400 ft 200° 200° 6 kt METAR EDWE 240450Z AUTO 20006KT 3800 // FEW007/// SCT009/// OVC084/// 13/13 Q1010
06:20
I
13 °C 4 km 800 ft 210° 210° 5 kt METAR EDWE 240420Z AUTO 21005KT 4000 // BKN008/// OVC020/// 13/13 Q1010
05:50
I
13 °C 3.7 km 700 ft 210° 210° 6 kt METAR EDWE 240350Z AUTO 21006KT 3700 // FEW005/// OVC007/// 13/13 Q1010
05:20
L
13 °C 3.4 km 400 ft 240° 240° 5 kt METAR EDWE 240320Z AUTO 24005KT 200V260 3400 // OVC004/// 13/13 Q1011
04:50
I
13 °C 3.6 km 500 ft 220° 220° 5 kt METAR EDWE 240250Z AUTO 22005KT 3600 // OVC005/// 13/13 Q1011
04:20
I
13 °C 3.5 km 500 ft 210° 210° 5 kt METAR EDWE 240220Z AUTO 21005KT 3500 // OVC005/// 13/12 Q1011
03:50
I
13 °C 3.9 km 700 ft 210° 210° 5 kt METAR EDWE 240150Z AUTO 21005KT 3900 // FEW005/// OVC007/// 13/12 Q1011
03:20
I
13 °C 2.4 km 800 ft 190° 190° 6 kt METAR EDWE 240120Z AUTO 19006KT 2400 // BKN008/// OVC011/// 13/12 Q1011
02:50
I
13 °C 4.4 km 2,500 ft 180° 180° 4 kt METAR EDWE 240050Z AUTO 18004KT 4400 // SCT010/// BKN025/// OVC035/// 13/12 Q1011
02:20
I
13 °C 2.8 km 1,600 ft 180° 180° 3 kt METAR EDWE 240020Z AUTO 18003KT 150V220 2800 // BKN016/// OVC021/// 13/12 Q1012
01:50
M
13 °C 5 km 1,800 ft 170° 170° 4 kt METAR EDWE 232350Z AUTO 17004KT 5000 // BKN018/// OVC022/// 13/12 Q1012
01:20
I
13 °C 4.6 km 1,900 ft 160° 160° 4 kt METAR EDWE 232320Z AUTO 16004KT 4600 // OVC019/// 13/12 Q1012
00:50
M
13 °C 8 km 2,100 ft 170° 170° 6 kt METAR EDWE 232250Z AUTO 17006KT 8000 // OVC021/// 13/11 Q1012
00:20
M
13 °C 6 km 2,100 ft 160° 160° 4 kt METAR EDWE 232220Z AUTO 16004KT 120V190 6000 // BKN021/// OVC042/// 13/11 Q1012

September 23, 2022

Time Code Weather Temp. Visibility Ceiling Wind METAR/SPECI
23:50
V
13 °C 9 km 3,200 ft 150° 150° 4 kt METAR EDWE 232150Z AUTO 15004KT 120V190 9000 // SCT024/// BKN032/// OVC038/// 13/11 Q1012
23:20
M
13 °C 8 km 2,700 ft 150° 150° 3 kt METAR EDWE 232120Z AUTO 15003KT 120V180 8000 // OVC027/// 13/11 Q1013
22:50
M
13 °C 5 km 3,000 ft 160° 160° 3 kt METAR EDWE 232050Z AUTO 16003KT 120V200 5000 // OVC030/// 13/11 Q1013
22:20
M
13 °C 6 km 3,100 ft 160° 160° 4 kt METAR EDWE 232020Z AUTO 16004KT 120V190 6000 // BKN031/// OVC040/// 13/11 Q1013
21:50
M
13 °C 7 km 7,700 ft 160° 160° 4 kt METAR EDWE 231950Z AUTO 16004KT 130V190 7000 // FEW041/// OVC077/// 13/11 Q1013
21:20
V
13 °C 8 km 3,600 ft 150° 150° 3 kt METAR EDWE 231920Z AUTO 15003KT 120V190 8000 // FEW032/// BKN036/// OVC042/// 13/12 Q1013
20:50
V
13 °C 9 km 3,500 ft 150° 150° 3 kt METAR EDWE 231850Z AUTO 15003KT 9000 // SCT028/// BKN035/// OVC057/// 13/12 Q1013
Older data

We and third parties follow your internet behavior on our website with cookies. If you continue, we assume you agree with our cookie policy. Learn more